KDIJ

Details ICAO KDIJ
Name DRIGGS REED MEM
Region United States
Timezone America/Boise (UTC-6.0)
Plans Departing 4
Arriving 4
Stats Elevation 6,229 ft / 1,899 m (AMSL)
Location 43.742460° -111.097494°
Runways 1
Magnetic Variation 11.520° E
Sunrise 2018-05-20 11:55:26 UTC / 2018-05-20 05:55:26 Local
Sunset 2018-05-21 02:49:17 UTC / 2018-05-20 20:49:17 Local
Advertisement - Login to hide

Runways

ID Width Length Bearing (true) Bearing (mag) Surface Threshold Offset Overrun Length
03 75 ft / 23 m 7,293 ft / 2,223 m 48.09° 36.57° Asphalt 0 ft / 0 m 0 ft / 0 m
21 75 ft / 23 m 7,293 ft / 2,223 m 228.11° 216.59° Asphalt 0 ft / 0 m 0 ft / 0 m

Map

Weather


0- 5 10 15 20 25 30 35+ Temperature / ° C

Clouds and Precipitation
Forecast for 2018-05-20 18:00 UTC. Updated 5 hours ago

Ground ~20,000 ft ~40,000 ft Winds

METAR

KDIJ 202156Z AUTO 06006KT 10SM CLR 18/05 A3002 RMK AO2 SLP129 T01830050

TAF

TAF KDIJ 201741Z 2018/2118 06005KT P6SM FEW050 FEW100 FM201900 20007KT P6SM VCTS SCT050CB SCT100 FM210200 11005KT P6SM VCSH BKN060 OVC110 AMD LTD TO CLD VIS AND WIND

Frequencies

Recorded 120.77 MHz ASOS
Unicom 122.70 MHz CTAF/UNICOM
Warning: Do not use this data for real-world aviation or navigation. No guarantee of current accuracy is given.